createdAt,value
2018-09-24T00:01:35.900Z,19.58
2018-09-24T00:04:03.774Z,18.00
2018-09-24T00:06:30.818Z,20.92
2018-09-24T00:08:57.865Z,19.87
2018-09-24T00:11:24.936Z,21.48
2018-09-24T00:13:51.963Z,22.90
2018-09-24T00:16:18.979Z,21.58
2018-09-24T00:18:46.066Z,23.80
2018-09-24T00:21:13.109Z,24.12
2018-09-24T00:23:40.156Z,22.40
2018-09-24T00:26:07.212Z,23.12
2018-09-24T00:28:34.255Z,21.67
2018-09-24T00:31:01.269Z,22.00
2018-09-24T00:33:28.357Z,23.42
2018-09-24T00:35:55.508Z,23.73
2018-09-24T00:38:22.661Z,22.90
2018-09-24T00:40:49.707Z,24.35
2018-09-24T00:43:16.870Z,24.20
2018-09-24T00:45:44.929Z,23.02
2018-09-24T00:48:11.977Z,24.95
2018-09-24T00:50:39.033Z,24.85
2018-09-24T00:53:06.072Z,24.40
2018-09-24T00:55:33.121Z,23.77
2018-09-24T00:58:00.177Z,24.70
2018-09-24T01:00:27.217Z,24.30
2018-09-24T01:02:54.265Z,24.92
2018-09-24T01:05:21.285Z,24.73
2018-09-24T01:07:48.366Z,25.17
2018-09-24T01:10:16.132Z,24.75
2018-09-24T01:12:43.177Z,25.45
2018-09-24T01:15:10.232Z,25.35
2018-09-24T01:17:37.275Z,26.10
2018-09-24T01:20:04.425Z,24.55
2018-09-24T01:22:31.475Z,26.25
2018-09-24T01:24:58.492Z,26.73
2018-09-24T01:27:25.572Z,24.70
2018-09-24T01:29:52.619Z,23.85
2018-09-24T01:32:19.674Z,26.08
2018-09-24T01:34:46.718Z,24.75
2018-09-24T01:37:13.765Z,24.75
2018-09-24T01:39:40.820Z,23.02
2018-09-24T01:42:07.972Z,23.23
2018-09-24T01:44:35.834Z,24.00
2018-09-24T01:47:02.883Z,25.15
2018-09-24T01:49:29.930Z,21.08
2018-09-24T01:51:56.979Z,20.60
2018-09-24T01:54:24.213Z,23.02
2018-09-24T01:56:51.281Z,24.42
2018-09-24T01:59:18.335Z,25.98
2018-09-24T02:01:45.382Z,26.58
2018-09-24T02:04:12.427Z,26.85
2018-09-24T02:06:40.917Z,25.62
2018-09-24T02:09:08.060Z,25.52
2018-09-24T02:11:35.109Z,27.62
2018-09-24T02:14:02.163Z,27.83
2018-09-24T02:16:29.207Z,28.58
2018-09-24T02:18:56.358Z,27.77
2018-09-24T02:21:23.407Z,26.40
2018-09-24T02:23:51.175Z,25.70
2018-09-24T02:26:18.225Z,24.85
2018-09-24T02:28:45.270Z,25.62
2018-09-24T02:31:12.318Z,27.67
2018-09-24T02:33:39.372Z,26.50
2018-09-24T02:36:06.413Z,26.37
2018-09-24T02:38:33.565Z,25.37
2018-09-24T02:41:00.615Z,25.83
2018-09-24T02:43:27.765Z,25.90
2018-09-24T02:45:54.820Z,24.27
2018-09-24T02:48:21.863Z,24.83
2018-09-24T02:50:48.913Z,25.48
2018-09-24T02:53:15.966Z,24.85
2018-09-24T02:55:43.009Z,25.75
2018-09-24T02:58:10.159Z,27.33
2018-09-24T03:00:37.208Z,26.40
2018-09-24T03:03:04.359Z,25.17
2018-09-24T03:05:31.414Z,23.80
2018-09-24T03:07:58.457Z,23.38
2018-09-24T03:10:25.509Z,20.58
2018-09-24T03:12:52.558Z,23.08
2018-09-24T03:15:19.602Z,22.58
2018-09-24T03:17:46.654Z,23.20
2018-09-24T03:20:14.109Z,22.73
2018-09-24T03:22:41.171Z,22.83
2018-09-24T03:25:09.007Z,24.87
2018-09-24T03:27:36.695Z,26.80
2018-09-24T03:30:24.977Z,26.37
2018-09-24T03:33:11.085Z,24.77
2018-09-24T03:35:38.187Z,28.10
2018-09-24T03:38:05.511Z,29.25
2018-09-24T03:40:32.588Z,25.12
2018-09-24T03:42:59.639Z,25.40
2018-09-24T03:45:26.996Z,27.67
2018-09-24T03:47:54.038Z,28.20
2018-09-24T03:50:21.088Z,27.58
2018-09-24T03:52:48.452Z,27.55
2018-09-24T03:55:15.493Z,28.20
2018-09-24T03:57:42.508Z,28.55
2018-09-24T04:00:09.997Z,27.80
2018-09-24T04:02:37.052Z,28.40
2018-09-24T04:05:10.041Z,29.42
2018-09-24T04:07:42.820Z,29.20
2018-09-24T04:10:15.872Z,28.12
2018-09-24T04:12:48.699Z,27.52
2018-09-24T04:15:21.578Z,27.85
2018-09-24T04:17:54.365Z,28.55
2018-09-24T04:20:27.244Z,28.65
2018-09-24T04:23:00.131Z,28.30
2018-09-24T04:25:32.914Z,29.85
2018-09-24T04:28:05.707Z,28.38
2018-09-24T04:30:39.197Z,29.75
2018-09-24T04:33:12.085Z,31.30
2018-09-24T04:35:44.865Z,28.98
2018-09-24T04:38:17.653Z,27.33
2018-09-24T04:40:50.609Z,27.77
2018-09-24T04:43:23.523Z,29.15
2018-09-24T04:45:56.408Z,28.05
2018-09-24T04:48:29.299Z,27.80
2018-09-24T04:51:02.078Z,27.13
2018-09-24T04:53:34.860Z,25.52
2018-09-24T04:56:07.746Z,26.65
2018-09-24T04:58:40.782Z,30.33
2018-09-24T05:01:13.823Z,26.87
2018-09-24T05:03:46.919Z,28.70
2018-09-24T05:06:19.799Z,28.58
2018-09-24T05:08:52.589Z,26.65
2018-09-24T05:11:38.805Z,30.08
2018-09-24T05:14:11.562Z,32.55
2018-09-24T05:16:44.859Z,32.05
2018-09-24T05:19:17.750Z,33.80
2018-09-24T05:21:50.629Z,32.75
2018-09-24T05:24:23.516Z,32.15
2018-09-24T05:26:56.713Z,35.78
2018-09-24T05:29:29.798Z,34.72
2018-09-24T05:32:02.581Z,35.05
2018-09-24T05:34:36.464Z,32.88
2018-09-24T05:37:10.710Z,31.70
2018-09-24T05:39:43.803Z,31.50
2018-09-24T05:42:16.990Z,32.40
2018-09-24T05:44:58.619Z,32.83
2018-09-24T05:50:18.180Z,35.30
2018-09-24T05:52:51.061Z,34.97
2018-09-24T05:55:23.915Z,36.10
2018-09-24T05:57:56.839Z,36.88
2018-09-24T06:00:30.843Z,37.92
2018-09-24T06:03:04.446Z,40.70
2018-09-24T06:05:38.187Z,37.33
2018-09-24T06:08:12.359Z,38.92
2018-09-24T06:10:45.969Z,38.40
2018-09-24T06:13:18.854Z,37.63
2018-09-24T06:15:51.746Z,39.50
2018-09-24T06:18:24.627Z,39.03
2018-09-24T06:20:57.723Z,36.30
2018-09-24T06:23:30.602Z,33.95
2018-09-24T06:26:03.391Z,32.13
2018-09-24T06:28:36.176Z,24.42
2018-09-24T06:31:08.957Z,23.25
2018-09-24T06:33:41.940Z,16.67
2018-09-24T06:36:14.730Z,11.77
2018-09-24T06:38:47.472Z,12.18
2018-09-24T06:41:20.289Z,8.90
2018-09-24T06:43:53.277Z,7.57
2018-09-24T06:46:41.752Z,5.03
2018-09-24T06:49:14.511Z,3.40
2018-09-24T06:51:47.295Z,2.15
2018-09-24T06:54:20.179Z,1.65
2018-09-24T06:56:53.167Z,1.50
2018-09-24T06:59:26.109Z,2.35
2018-09-24T07:01:59.143Z,1.00
2018-09-24T07:04:32.236Z,0.85
2018-09-24T07:07:05.221Z,0.75
2018-09-24T07:09:38.210Z,0.68
2018-09-24T07:12:10.997Z,0.60
2018-09-24T07:14:44.293Z,1.10
2018-09-24T07:17:17.284Z,0.70
2018-09-24T07:19:50.161Z,0.82
2018-09-24T07:22:36.573Z,1.10
2018-09-24T07:25:25.249Z,0.88
2018-09-24T07:27:58.042Z,1.00
2018-09-24T07:30:30.888Z,0.70
2018-09-24T07:33:03.759Z,0.95
2018-09-24T07:35:36.658Z,0.77
2018-09-24T07:38:09.544Z,1.00
2018-09-24T07:40:42.741Z,0.68
2018-09-24T07:43:28.275Z,1.10
2018-09-24T07:48:54.928Z,0.68
2018-09-24T07:51:28.072Z,0.80
2018-09-24T07:54:00.964Z,0.62
2018-09-24T07:56:33.848Z,0.70
2018-09-24T07:59:06.727Z,0.50
2018-09-24T08:01:39.606Z,0.60
2018-09-24T08:04:12.402Z,0.60
2018-09-24T08:06:45.492Z,0.62
2018-09-24T08:09:18.271Z,0.88
2018-09-24T08:11:51.362Z,0.60
2018-09-24T08:14:24.455Z,1.15
2018-09-24T08:17:10.661Z,1.20
2018-09-24T08:19:43.653Z,0.88
2018-09-24T08:22:16.521Z,1.20
2018-09-24T08:24:49.509Z,1.30
2018-09-24T08:27:22.497Z,1.00
2018-09-24T08:29:55.485Z,1.25
2018-09-24T08:32:28.165Z,1.58
2018-09-24T08:35:01.013Z,0.85
2018-09-24T08:37:33.835Z,1.00
2018-09-24T08:40:06.693Z,1.10
2018-09-24T08:42:39.710Z,0.60
2018-09-24T08:45:12.599Z,0.88
2018-09-24T08:47:45.893Z,1.12
2018-09-24T08:50:18.883Z,0.95
2018-09-24T08:52:51.869Z,1.62
2018-09-24T08:55:24.647Z,0.80
2018-09-24T08:57:57.636Z,1.60
2018-09-24T09:00:31.453Z,1.25
2018-09-24T09:03:04.397Z,0.80
2018-09-24T09:05:38.442Z,1.00
2018-09-24T09:08:11.255Z,0.82
2018-09-24T09:10:44.110Z,0.70
2018-09-24T09:13:18.430Z,0.75
2018-09-24T09:15:51.418Z,0.80
2018-09-24T09:18:37.882Z,0.88
2018-09-24T09:21:26.615Z,0.80
2018-09-24T09:23:59.576Z,0.70
2018-09-24T09:26:32.563Z,0.70
2018-09-24T09:29:05.347Z,0.60
2018-09-24T09:31:41.912Z,0.80
2018-09-24T09:34:14.589Z,0.90
2018-09-24T09:36:48.499Z,0.80
2018-09-24T09:39:21.491Z,0.88
2018-09-24T09:41:54.475Z,0.80
2018-09-24T09:44:27.361Z,0.60
2018-09-24T09:47:00.347Z,0.43
2018-09-24T09:49:33.306Z,0.62
2018-09-24T09:52:07.932Z,0.90
2018-09-24T09:54:40.751Z,0.70
2018-09-24T09:57:26.335Z,0.80
2018-09-24T09:59:59.214Z,0.68
2018-09-24T10:02:32.100Z,0.85
2018-09-24T10:05:04.780Z,0.68
2018-09-24T10:07:37.695Z,0.50
2018-09-24T10:10:10.454Z,0.62
2018-09-24T10:12:43.341Z,0.80
2018-09-24T10:15:16.220Z,0.62
2018-09-24T10:17:49.416Z,0.80
2018-09-24T10:20:22.401Z,1.25
2018-09-24T10:22:55.184Z,1.00
2018-09-24T10:25:28.070Z,0.77
2018-09-24T10:28:01.271Z,0.77
2018-09-24T10:30:34.255Z,0.90
2018-09-24T10:33:07.341Z,0.73
2018-09-24T10:35:40.328Z,0.62
2018-09-24T10:38:13.317Z,1.15
2018-09-24T10:40:46.305Z,0.65
2018-09-24T10:43:18.984Z,0.82
2018-09-24T10:45:51.879Z,0.85
2018-09-24T10:48:24.823Z,0.68
2018-09-24T10:50:57.642Z,1.00
2018-09-24T10:53:31.347Z,0.50
2018-09-24T10:56:04.335Z,0.60
2018-09-24T10:58:37.321Z,0.85
2018-09-24T11:01:10.003Z,1.12
2018-09-24T11:03:42.889Z,0.70
2018-09-24T11:06:15.877Z,0.50
2018-09-24T11:08:49.273Z,0.70
2018-09-24T11:11:23.081Z,0.40
2018-09-24T11:13:56.069Z,0.70
2018-09-24T11:16:30.631Z,0.60
2018-09-24T11:19:03.584Z,0.60
2018-09-24T11:21:36.550Z,0.62
2018-09-24T11:24:09.558Z,0.57
2018-09-24T11:26:42.753Z,0.30
2018-09-24T11:29:15.637Z,0.50
2018-09-24T11:31:48.520Z,0.90
2018-09-24T11:34:22.224Z,0.70
2018-09-24T11:36:56.342Z,0.65
2018-09-24T11:39:29.229Z,0.50
2018-09-24T11:42:02.110Z,0.60
2018-09-24T11:44:35.608Z,0.50
2018-09-24T11:47:08.602Z,0.40
2018-09-24T11:49:41.484Z,0.55
2018-09-24T11:52:14.574Z,0.90
2018-09-24T11:54:47.563Z,0.62
2018-09-24T11:57:21.266Z,0.55
2018-09-24T11:59:54.150Z,0.52
2018-09-24T12:02:27.668Z,0.82
2018-09-24T12:05:00.645Z,0.90
2018-09-24T12:07:33.730Z,0.90
2018-09-24T12:10:06.642Z,0.68
2018-09-24T12:12:39.398Z,0.50
2018-09-24T12:15:13.017Z,0.85
2018-09-24T12:17:45.994Z,0.60
2018-09-24T12:20:18.980Z,1.25
2018-09-24T12:22:52.581Z,0.75
2018-09-24T12:25:25.569Z,0.70
2018-09-24T12:27:58.765Z,0.93
2018-09-24T12:30:32.773Z,0.50
2018-09-24T12:33:07.141Z,0.70
2018-09-24T12:35:40.553Z,0.80
2018-09-24T12:38:13.956Z,0.77
2018-09-24T12:40:47.041Z,0.50
2018-09-24T12:43:22.225Z,0.45
2018-09-24T12:45:55.382Z,0.68
2018-09-24T12:48:29.216Z,0.50
2018-09-24T12:51:02.722Z,0.50
2018-09-24T12:53:36.325Z,0.68
2018-09-24T12:56:09.273Z,0.60
2018-09-24T12:58:43.628Z,0.52
2018-09-24T13:01:18.252Z,0.80
2018-09-24T13:03:52.674Z,0.57
2018-09-24T13:06:27.565Z,0.68
2018-09-24T13:09:02.643Z,0.45
2018-09-24T13:11:36.217Z,0.40
2018-09-24T13:14:10.872Z,0.45
2018-09-24T13:16:53.203Z,0.55
2018-09-24T13:19:37.699Z,0.68
2018-09-24T13:22:12.193Z,0.60
2018-09-24T13:24:45.762Z,0.80
2018-09-24T13:27:19.671Z,0.60
2018-09-24T13:29:52.965Z,0.90
2018-09-24T13:32:26.336Z,0.73
2018-09-24T13:34:59.351Z,0.50
2018-09-24T13:37:32.339Z,1.50
2018-09-24T13:40:05.435Z,0.73
2018-09-24T13:42:38.315Z,0.75
2018-09-24T13:45:11.549Z,0.62
2018-09-24T13:47:46.339Z,0.80
2018-09-24T13:50:19.327Z,1.00
2018-09-24T13:52:53.473Z,0.73
2018-09-24T13:55:26.532Z,0.75
2018-09-24T13:57:59.315Z,0.73
2018-09-24T14:00:32.718Z,0.70
2018-09-24T14:03:05.497Z,0.55
2018-09-24T14:05:38.482Z,0.88
2018-09-24T14:08:11.372Z,0.75
2018-09-24T14:10:44.363Z,0.50
2018-09-24T14:13:18.301Z,0.93
2018-09-24T14:15:52.075Z,0.82
2018-09-24T14:18:25.061Z,0.60
2018-09-24T14:21:00.024Z,0.93
2018-09-24T14:23:33.294Z,0.80
2018-09-24T14:26:06.074Z,0.62
2018-09-24T14:28:39.061Z,0.77
2018-09-24T14:31:12.049Z,0.60
2018-09-24T14:33:46.782Z,0.90
2018-09-24T14:36:20.278Z,0.70
2018-09-24T14:38:53.248Z,0.88
2018-09-24T14:41:26.257Z,0.70
2018-09-24T14:44:00.164Z,0.62
2018-09-24T14:46:33.049Z,0.90
2018-09-24T14:49:06.139Z,1.00
2018-09-24T14:51:42.974Z,1.00
2018-09-24T14:54:16.005Z,0.70
2018-09-24T14:56:49.301Z,0.80
2018-09-24T14:59:35.139Z,0.90
2018-09-24T15:02:10.433Z,1.12
2018-09-24T15:04:43.933Z,0.57
2018-09-24T15:07:17.437Z,0.70
2018-09-24T15:09:50.318Z,0.80
2018-09-24T15:12:25.442Z,0.80
2018-09-24T15:14:58.556Z,0.80
2018-09-24T15:17:34.197Z,0.90
2018-09-24T15:20:08.416Z,0.93
2018-09-24T15:22:42.086Z,0.62
2018-09-24T15:25:27.485Z,1.00
2018-09-24T15:28:14.656Z,0.90
2018-09-24T15:30:49.447Z,0.73
2018-09-24T15:33:23.874Z,0.90
2018-09-24T15:35:58.120Z,0.80
2018-09-24T15:38:33.018Z,0.80
2018-09-24T15:41:07.504Z,1.10
2018-09-24T15:43:41.830Z,0.90
2018-09-24T15:46:15.879Z,0.70
2018-09-24T15:48:51.224Z,1.10
2018-09-24T15:51:26.397Z,0.73
2018-09-24T15:54:00.372Z,0.80
2018-09-24T15:56:38.171Z,0.80
2018-09-24T15:59:12.371Z,0.65
2018-09-24T16:01:46.330Z,0.80
2018-09-24T16:04:20.819Z,0.70
2018-09-24T16:06:55.297Z,0.85
2018-09-24T16:09:28.842Z,1.02
2018-09-24T16:12:06.153Z,2.12
2018-09-24T16:14:39.428Z,4.20
2018-09-24T16:17:14.565Z,10.63
2018-09-24T16:19:50.626Z,9.88
2018-09-24T16:22:24.943Z,8.20
2018-09-24T16:24:59.471Z,10.00
2018-09-24T16:27:32.968Z,9.60
2018-09-24T16:30:07.842Z,6.28
2018-09-24T16:32:43.346Z,10.90
2018-09-24T16:35:16.598Z,7.25
2018-09-24T16:38:05.629Z,11.52
2018-09-24T16:40:49.194Z,5.57
2018-09-24T16:43:22.757Z,5.68
2018-09-24T16:45:58.513Z,5.87
2018-09-24T16:48:34.122Z,5.28
2018-09-24T16:51:09.407Z,5.10
2018-09-24T16:53:44.117Z,4.93
2018-09-24T16:56:19.710Z,4.87
2018-09-24T16:58:53.754Z,4.03
2018-09-24T17:01:30.988Z,4.50
2018-09-24T17:04:05.777Z,4.25
2018-09-24T17:06:50.320Z,4.40
2018-09-24T17:09:34.818Z,4.22
2018-09-24T17:12:23.125Z,4.80
2018-09-24T17:15:00.656Z,4.78
2018-09-24T17:17:34.854Z,4.32
2018-09-24T17:20:12.116Z,3.83
2018-09-24T17:22:45.247Z,4.35
2018-09-24T17:25:19.568Z,3.37
2018-09-24T17:28:06.367Z,3.75
2018-09-24T17:30:42.470Z,3.95
2018-09-24T17:33:16.742Z,3.85
2018-09-24T17:35:51.181Z,4.12
2018-09-24T17:38:27.241Z,3.37
2018-09-24T17:41:00.229Z,3.78
2018-09-24T17:43:37.239Z,4.22
2018-09-24T17:46:10.849Z,4.57
2018-09-24T17:48:46.367Z,4.10
2018-09-24T17:51:21.089Z,3.67
2018-09-24T17:53:55.171Z,4.00
2018-09-24T17:56:29.950Z,3.45
2018-09-24T17:59:03.845Z,3.20
2018-09-24T18:01:39.636Z,2.75
2018-09-24T18:04:15.448Z,2.75
2018-09-24T18:09:29.690Z,2.37
2018-09-24T18:12:03.179Z,1.92
2018-09-24T18:14:37.645Z,2.72
2018-09-24T18:17:11.860Z,2.20
2018-09-24T18:19:45.461Z,2.50
2018-09-24T18:22:18.967Z,2.42
2018-09-24T18:24:53.154Z,2.85
2018-09-24T18:27:26.962Z,2.33
2018-09-24T18:30:01.713Z,2.33
2018-09-24T18:32:36.650Z,2.65
2018-09-24T18:35:11.069Z,2.35
2018-09-24T18:37:46.037Z,2.35
2018-09-24T18:40:25.754Z,2.30
2018-09-24T18:43:00.446Z,3.45
2018-09-24T18:45:44.896Z,2.85
2018-09-24T18:48:32.006Z,2.42
2018-09-24T18:51:04.943Z,1.23
2018-09-24T18:53:39.012Z,2.47
2018-09-24T18:56:13.269Z,1.70
2018-09-24T18:58:48.554Z,2.03
2018-09-24T19:01:24.567Z,1.80
2018-09-24T19:03:58.822Z,2.05
2018-09-24T19:06:34.609Z,1.85
2018-09-24T19:09:23.672Z,2.12
2018-09-24T19:12:11.485Z,1.75
2018-09-24T19:14:47.570Z,2.28
2018-09-24T19:17:21.007Z,2.15
2018-09-24T19:19:55.189Z,2.30
2018-09-24T19:22:30.054Z,2.47
2018-09-24T19:25:03.450Z,2.25
2018-09-24T19:27:36.847Z,2.37
2018-09-24T19:30:10.246Z,1.95
2018-09-24T19:32:43.497Z,2.28
2018-09-24T19:35:16.221Z,1.70
2018-09-24T19:37:50.536Z,2.15
2018-09-24T19:40:26.169Z,1.98
2018-09-24T19:43:03.866Z,1.77
2018-09-24T19:45:39.232Z,1.73
2018-09-24T19:48:12.899Z,2.50
2018-09-24T19:50:48.053Z,2.10
2018-09-24T19:53:21.365Z,2.15
2018-09-24T19:55:54.352Z,1.60
2018-09-24T19:58:27.552Z,2.17
2018-09-24T20:01:01.461Z,1.80
2018-09-24T20:03:41.000Z,1.90
2018-09-24T20:06:16.354Z,1.50
2018-09-24T20:08:57.773Z,1.87
2018-09-24T20:11:33.919Z,1.80
2018-09-24T20:14:07.798Z,1.80
2018-09-24T20:16:43.845Z,1.30
2018-09-24T20:19:18.489Z,1.50
2018-09-24T20:21:55.721Z,1.63
2018-09-24T20:24:28.766Z,1.97
2018-09-24T20:27:02.235Z,1.97
2018-09-24T20:29:37.386Z,1.73
2018-09-24T20:32:12.568Z,1.47
2018-09-24T20:34:47.169Z,1.87
2018-09-24T20:37:21.586Z,1.60
2018-09-24T20:39:55.780Z,1.50
2018-09-24T20:42:30.838Z,1.50
2018-09-24T20:45:06.271Z,1.50
2018-09-24T20:47:41.728Z,1.67
2018-09-24T20:50:16.770Z,1.47
2018-09-24T20:52:50.236Z,1.60
2018-09-24T20:55:23.456Z,1.70
2018-09-24T20:57:56.753Z,1.63
2018-09-24T21:00:30.487Z,1.53
2018-09-24T21:03:04.550Z,1.43
2018-09-24T21:05:38.144Z,1.30
2018-09-24T21:08:12.495Z,1.60
2018-09-24T21:10:45.898Z,1.40
2018-09-24T21:13:18.993Z,1.50
2018-09-24T21:15:53.198Z,1.70
2018-09-24T21:18:27.325Z,1.40
2018-09-24T21:21:07.717Z,1.47
2018-09-24T21:23:40.454Z,1.60
2018-09-24T21:26:14.160Z,1.60
2018-09-24T21:28:47.148Z,1.20
2018-09-24T21:31:20.032Z,1.60
2018-09-24T21:33:53.021Z,1.97
2018-09-24T21:36:26.111Z,1.50
2018-09-24T21:38:59.208Z,1.10
2018-09-24T21:41:32.295Z,1.50
2018-09-24T21:44:05.076Z,1.50
2018-09-24T21:46:39.269Z,1.83
2018-09-24T21:49:12.082Z,1.67
2018-09-24T21:51:44.964Z,1.50
2018-09-24T21:54:17.802Z,1.53
2018-09-24T21:56:50.834Z,1.40
2018-09-24T21:59:24.647Z,1.47
2018-09-24T22:01:57.633Z,1.67
2018-09-24T22:04:30.516Z,1.40
2018-09-24T22:07:03.707Z,1.60
2018-09-24T22:09:36.598Z,1.33
2018-09-24T22:12:09.478Z,1.33
2018-09-24T22:14:42.573Z,1.30
2018-09-24T22:17:15.255Z,2.03
2018-09-24T22:19:47.935Z,1.40
2018-09-24T22:22:20.712Z,1.67
2018-09-24T22:24:53.804Z,1.50
2018-09-24T22:27:26.590Z,1.77
2018-09-24T22:29:59.860Z,1.37
2018-09-24T22:32:32.663Z,1.67
2018-09-24T22:35:05.447Z,1.57
2018-09-24T22:37:38.234Z,1.60
2018-09-24T22:40:11.118Z,1.50
2018-09-24T22:42:43.960Z,1.77
2018-09-24T22:45:16.988Z,1.40
2018-09-24T22:47:49.879Z,1.67
2018-09-24T22:50:22.760Z,1.47
2018-09-24T22:52:55.750Z,1.40
2018-09-24T22:55:28.736Z,1.40
2018-09-24T22:58:01.722Z,1.60
2018-09-24T23:00:34.513Z,1.60
2018-09-24T23:03:07.500Z,1.83
2018-09-24T23:05:40.181Z,1.50
2018-09-24T23:08:12.958Z,1.50
2018-09-24T23:10:45.946Z,1.60
2018-09-24T23:13:18.838Z,1.40
2018-09-24T23:15:51.518Z,1.30
2018-09-24T23:18:24.296Z,1.40
2018-09-24T23:20:58.206Z,1.30
2018-09-24T23:23:31.296Z,1.40
2018-09-24T23:26:04.183Z,1.50
2018-09-24T23:28:36.965Z,1.43
2018-09-24T23:31:09.952Z,1.30
2018-09-24T23:33:44.170Z,1.47
2018-09-24T23:36:17.054Z,1.30
2018-09-24T23:38:50.144Z,1.30
2018-09-24T23:41:23.101Z,1.30
2018-09-24T23:43:56.228Z,1.30
2018-09-24T23:46:29.108Z,1.23
2018-09-24T23:49:02.955Z,1.27
2018-09-24T23:51:35.806Z,1.50
2018-09-24T23:54:08.794Z,1.30
2018-09-24T23:56:41.784Z,1.23
2018-09-24T23:59:14.565Z,1.30
